Time;durP1;ratioP1;P1;durP2;ratioP2;P2;SDS_P1;SDS_P2;PMS_P1;PMS_P2;Temp;Humidity;BMP_temperature;BMP_pressure;BME280_temperature;BME280_humidity;BME280_pressure;Samples;Min_cycle;Max_cycle;Signal;HPM_P1;HPM_P2
2022/12/14 00:00:32;;;;;;;45.92;25.08;;;-3.20;99.90;;;;;;5035853;28;20073;-55
2022/12/14 00:02:58;;;;;;;49.03;25.55;;;-3.20;99.90;;;;;;5035725;28;20099;-55
2022/12/14 00:05:23;;;;;;;44.83;24.08;;;-3.30;99.90;;;;;;5035587;28;20049;-55
2022/12/14 00:07:49;;;;;;;42.03;24.40;;;-3.40;99.90;;;;;;5035481;28;20152;-53
2022/12/14 00:10:15;;;;;;;44.50;23.73;;;-3.30;99.90;;;;;;5035669;28;20116;-55
2022/12/14 00:12:40;;;;;;;45.53;26.02;;;-3.30;99.90;;;;;;5035737;28;20120;-56
2022/12/14 00:15:07;;;;;;;47.15;24.92;;;-3.40;99.90;;;;;;5035529;28;20049;-55
2022/12/14 00:17:33;;;;;;;44.72;24.63;;;-3.30;99.90;;;;;;5017765;28;20099;-53
2022/12/14 00:19:59;;;;;;;47.95;25.25;;;-3.30;99.90;;;;;;5017744;28;20037;-55
2022/12/14 00:22:24;;;;;;;46.33;24.23;;;-3.30;99.90;;;;;;5017487;28;20083;-56
2022/12/14 00:24:50;;;;;;;47.53;25.90;;;-3.30;99.90;;;;;;5035602;28;20040;-54
2022/12/14 00:27:15;;;;;;;41.83;24.60;;;-3.40;99.90;;;;;;5035447;28;20509;-54
2022/12/14 00:29:41;;;;;;;47.17;23.88;;;-3.30;99.90;;;;;;5017737;28;20037;-53
2022/12/14 00:32:07;;;;;;;43.25;24.88;;;-3.40;99.90;;;;;;5035236;28;20056;-53
2022/12/14 00:34:32;;;;;;;48.05;25.33;;;-3.30;99.90;;;;;;5035216;28;20076;-54
2022/12/14 00:36:58;;;;;;;44.20;23.42;;;-3.40;99.90;;;;;;5035173;28;20049;-54
2022/12/14 00:39:23;;;;;;;42.83;22.73;;;-3.40;99.90;;;;;;5035283;28;20041;-56
2022/12/14 00:41:49;;;;;;;43.15;23.17;;;-3.30;99.90;;;;;;5037778;28;20044;-57
2022/12/14 00:44:15;;;;;;;45.13;23.17;;;-3.40;99.90;;;;;;5054786;28;20076;-56
2022/12/14 00:46:40;;;;;;;47.15;24.92;;;-3.40;99.90;;;;;;5054958;28;20045;-57
2022/12/14 00:49:06;;;;;;;41.85;23.58;;;-3.40;99.90;;;;;;5054697;28;20358;-57
2022/12/14 00:51:32;;;;;;;45.38;24.35;;;-3.40;99.90;;;;;;5036996;28;20041;-55
2022/12/14 00:53:57;;;;;;;43.58;23.70;;;-3.40;99.90;;;;;;5054777;28;20370;-56
2022/12/14 00:56:23;;;;;;;41.03;23.27;;;-3.50;99.90;;;;;;5044120;28;20087;-53
2022/12/14 00:58:50;;;;;;;46.05;23.13;;;-3.50;99.90;;;;;;5034450;28;20627;-55
2022/12/14 01:01:16;;;;;;;42.92;24.65;;;-3.50;99.90;;;;;;5034793;28;20046;-58
2022/12/14 01:03:42;;;;;;;44.75;23.42;;;-3.60;99.90;;;;;;5034441;28;20052;-53
2022/12/14 01:06:19;;;;;;;46.22;24.73;;;-3.70;99.90;;;;;;5034441;28;20048;-53
2022/12/14 01:08:46;;;;;;;42.72;24.40;;;-3.80;99.90;;;;;;5017093;28;20103;-57
2022/12/14 01:11:13;;;;;;;43.42;23.00;;;-3.80;99.90;;;;;;5034412;28;20124;-57
2022/12/14 01:13:39;;;;;;;49.63;24.83;;;-3.80;99.90;;;;;;5034567;28;20041;-55
2022/12/14 01:16:07;;;;;;;44.83;22.67;;;-3.80;99.90;;;;;;5016609;28;20504;-56
2022/12/14 01:18:35;;;;;;;44.03;22.67;;;-3.90;99.90;;;;;;5034667;28;20053;-57
2022/12/14 01:21:13;;;;;;;42.92;22.35;;;-3.80;99.90;;;;;;5034361;28;20045;-54
2022/12/14 01:23:38;;;;;;;40.63;21.83;;;-3.80;99.90;;;;;;5034324;28;20076;-57
2022/12/14 01:26:04;;;;;;;43.70;22.90;;;-3.80;99.90;;;;;;5034520;28;20076;-55
2022/12/14 01:28:30;;;;;;;42.70;23.50;;;-3.90;99.90;;;;;;5034409;28;20045;-53
2022/12/14 01:30:55;;;;;;;43.72;22.45;;;-3.90;99.90;;;;;;5034404;28;20041;-56
2022/12/14 01:33:21;;;;;;;45.80;22.98;;;-3.90;99.90;;;;;;5033841;28;20417;-56
2022/12/14 01:35:47;;;;;;;41.80;21.85;;;-4.00;99.90;;;;;;5034117;28;20053;-57
2022/12/14 01:38:12;;;;;;;43.00;21.52;;;-4.00;99.90;;;;;;5033865;28;20050;-57
2022/12/14 01:40:38;;;;;;;48.80;23.50;;;-4.00;99.90;;;;;;5034282;28;20041;-56
2022/12/14 01:43:12;;;;;;;47.35;22.45;;;-4.00;99.90;;;;;;5033564;28;20053;-55
2022/12/14 01:45:37;;;;;;;46.08;22.65;;;-4.00;99.90;;;;;;5034007;28;20049;-55
2022/12/14 01:48:04;;;;;;;41.60;22.50;;;-4.10;99.90;;;;;;5034117;28;20845;-53
2022/12/14 01:50:41;;;;;;;40.17;21.63;;;-4.10;99.90;;;;;;5033703;28;20041;-56
2022/12/14 01:53:11;;;;;;;41.33;21.95;;;-4.10;99.90;;;;;;5034057;28;20041;-56
2022/12/14 01:55:41;;;;;;;39.95;21.33;;;-4.10;99.90;;;;;;5038160;28;20033;-56
2022/12/14 01:58:15;;;;;;;37.90;22.13;;;-4.10;99.90;;;;;;5053908;28;20048;-53
2022/12/14 02:00:43;;;;;;;40.13;22.10;;;-4.10;99.90;;;;;;5053616;28;20392;-55
2022/12/14 02:03:19;;;;;;;44.33;22.35;;;-4.20;99.90;;;;;;5053624;28;20116;-56
2022/12/14 02:05:59;;;;;;;43.58;21.70;;;-4.10;99.90;;;;;;5053660;28;20041;-56
2022/12/14 02:08:25;;;;;;;42.75;22.92;;;-4.10;99.90;;;;;;5053207;28;20115;-54
2022/12/14 02:10:53;;;;;;;40.42;22.17;;;-4.10;99.90;;;;;;5034817;28;20130;-53
2022/12/14 02:13:25;;;;;;;39.35;22.08;;;-4.20;99.90;;;;;;5053297;28;20449;-56
2022/12/14 02:15:51;;;;;;;43.97;23.35;;;-4.10;99.90;;;;;;5053221;28;20052;-54
2022/12/14 02:18:21;;;;;;;43.95;22.38;;;-4.20;99.90;;;;;;5053538;28;20432;-55
2022/12/14 02:21:13;;;;;;;43.10;23.23;;;-4.20;99.90;;;;;;5053019;28;20074;-55
2022/12/14 02:23:56;;;;;;;;;;;-4.10;99.90;;;;;;5035588;28;20049;-55
2022/12/14 02:26:33;;;;;;;38.83;20.38;;;-4.20;99.90;;;;;;5052818;28;19917;-55
2022/12/14 02:29:05;;;;;;;39.15;19.77;;;-4.30;99.90;;;;;;5052724;28;20120;-54
2022/12/14 02:31:46;;;;;;;39.47;20.88;;;-4.40;99.90;;;;;;5052734;28;20041;-53
2022/12/14 02:35:04;;;;;;;46.60;21.73;;;-4.50;99.90;;;;;;5053058;28;20176;-55
2022/12/14 02:37:35;;;;;;;40.40;21.27;;;-4.40;99.90;;;;;;5009892;28;20045;-55
2022/12/14 02:40:16;;;;;;;39.85;21.00;;;-4.40;99.90;;;;;;5034851;28;20056;-55
2022/12/14 02:43:12;;;;;;;44.63;22.33;;;-4.40;99.90;;;;;;5052676;28;20076;-55
2022/12/14 02:45:48;;;;;;;41.05;21.42;;;-4.30;99.90;;;;;;5052784;28;20049;-55
2022/12/14 02:48:27;;;;;;;41.20;21.95;;;-4.30;99.90;;;;;;5052875;28;20033;-54
2022/12/14 02:51:07;;;;;;;41.13;22.20;;;-4.20;99.90;;;;;;5052664;28;20041;-53
2022/12/14 02:53:53;;;;;;;48.42;22.55;;;-4.20;99.90;;;;;;5052650;28;20044;-53
2022/12/14 02:56:24;;;;;;;44.67;24.20;;;-4.20;99.90;;;;;;5052360;28;20041;-52
2022/12/14 02:58:52;;;;;;;39.07;21.43;;;-4.10;99.90;;;;;;5052406;28;20037;-53
2022/12/14 03:01:23;;;;;;;41.78;22.30;;;-4.10;99.90;;;;;;5052419;28;20683;-54
2022/12/14 03:03:48;;;;;;;46.42;22.88;;;-4.10;99.90;;;;;;5052424;28;20048;-53
2022/12/14 03:06:25;;;;;;;41.63;21.73;;;-4.20;99.90;;;;;;5052509;28;20041;-52
2022/12/14 03:09:02;;;;;;;47.50;23.60;;;-4.20;99.90;;;;;;5052383;28;21043;-53
2022/12/14 03:11:35;;;;;;;43.97;22.35;;;-4.20;99.90;;;;;;5034443;28;20219;-55
2022/12/14 03:14:30;;;;;;;41.25;23.33;;;-4.20;99.90;;;;;;5034084;28;20102;-55
2022/12/14 03:17:04;;;;;;;44.53;22.67;;;-4.20;99.90;;;;;;5041077;28;20080;-55
2022/12/14 03:19:45;;;;;;;39.78;21.30;;;-4.30;99.90;;;;;;5052123;28;20075;-55
2022/12/14 03:22:17;;;;;;;44.75;21.38;;;-4.20;99.90;;;;;;5050913;28;20044;-55
2022/12/14 03:24:47;;;;;;;;;;;-4.20;99.90;;;;;;5034862;28;20041;-55
2022/12/14 03:27:22;;;;;;;44.28;20.30;;;-4.30;99.90;;;;;;5052235;28;19916;-52
2022/12/14 03:29:58;;;;;;;39.03;19.67;;;-4.30;99.90;;;;;;5051896;28;20045;-57
2022/12/14 03:32:26;;;;;;;45.63;22.42;;;-4.30;99.90;;;;;;5052107;28;20098;-56
2022/12/14 03:35:01;;;;;;;41.20;21.50;;;-4.40;99.90;;;;;;5052012;28;20513;-58
2022/12/14 03:37:35;;;;;;;43.85;21.60;;;-4.40;99.90;;;;;;5052025;28;20119;-57
2022/12/14 03:40:01;;;;;;;39.00;22.13;;;-4.30;99.90;;;;;;5051728;28;20041;-55
2022/12/14 03:42:38;;;;;;;43.25;21.73;;;-4.30;99.90;;;;;;5033930;28;20052;-55
2022/12/14 03:45:17;;;;;;;42.47;23.45;;;-4.40;99.90;;;;;;5051837;28;20490;-54
2022/12/14 03:48:08;;;;;;;38.50;20.40;;;-4.40;99.90;;;;;;5051912;28;20094;-55
2022/12/14 03:50:51;;;;;;;37.67;20.25;;;-4.50;99.90;;;;;;5041106;28;20045;-55
2022/12/14 03:53:40;;;;;;;42.85;22.25;;;-4.50;99.90;;;;;;5052112;28;20449;-57
2022/12/14 03:56:33;;;;;;;37.35;20.95;;;-4.50;99.90;;;;;;5043326;28;20048;-52
2022/12/14 03:59:14;;;;;;;40.38;20.75;;;-4.50;99.90;;;;;;5031931;28;20098;-56
2022/12/14 04:02:13;;;;;;;41.72;20.80;;;-4.50;99.90;;;;;;5014163;28;20053;-54
2022/12/14 04:04:57;;;;;;;42.10;21.05;;;-4.50;99.90;;;;;;5032054;28;20371;-54
2022/12/14 04:07:26;;;;;;;41.45;21.15;;;-4.50;99.90;;;;;;5031762;28;20082;-53
2022/12/14 04:09:58;;;;;;;39.42;20.45;;;-4.40;99.90;;;;;;5031787;28;20492;-53
2022/12/14 04:21:02;;;;;;;39.88;20.80;;;-4.50;99.90;;;;;;5014119;28;20055;-55
2022/12/14 04:26:21;;;;;;;46.17;20.52;;;-4.50;99.90;;;;;;5031807;28;19928;-56
2022/12/14 04:31:46;;;;;;;38.70;20.85;;;-4.50;99.90;;;;;;5031537;28;20099;-54
2022/12/14 04:34:15;;;;;;;38.70;19.63;;;-4.50;99.90;;;;;;5035198;28;20076;-55
2022/12/14 04:36:52;;;;;;;38.67;20.30;;;-4.60;99.90;;;;;;5035155;28;20072;-53
2022/12/14 04:39:24;;;;;;;37.22;20.20;;;-4.60;99.90;;;;;;5035499;28;20084;-54
2022/12/14 04:41:54;;;;;;;35.90;20.52;;;-4.60;99.90;;;;;;5034998;28;20424;-54
2022/12/14 04:44:45;;;;;;;38.53;20.02;;;-4.60;99.90;;;;;;5034870;28;20453;-53
2022/12/14 04:47:14;;;;;;;40.15;19.65;;;-4.60;99.90;;;;;;5034940;28;20072;-54
2022/12/14 04:50:07;;;;;;;44.20;21.48;;;-4.60;99.90;;;;;;5017225;28;20045;-54
2022/12/14 04:52:43;;;;;;;39.92;20.50;;;-4.60;99.90;;;;;;5034931;28;20052;-55
2022/12/14 04:55:24;;;;;;;39.03;19.80;;;-4.50;99.90;;;;;;5017995;28;20072;-54
2022/12/14 04:58:07;;;;;;;41.35;19.50;;;-4.60;99.90;;;;;;5054859;28;20044;-57
2022/12/14 05:00:36;;;;;;;41.15;18.45;;;-4.60;99.90;;;;;;5054826;28;20048;-57
2022/12/14 05:03:22;;;;;;;37.17;20.20;;;-4.70;99.90;;;;;;5054546;28;20090;-57
2022/12/14 05:06:23;;;;;;;36.75;18.65;;;-4.70;99.90;;;;;;5054418;28;20045;-55
2022/12/14 05:08:55;;;;;;;36.05;18.48;;;-4.70;99.90;;;;;;5034508;28;20133;-57
2022/12/14 05:11:24;;;;;;;38.80;18.95;;;-4.70;99.90;;;;;;5034564;28;20095;-56
2022/12/14 05:13:50;;;;;;;34.47;18.63;;;-4.70;99.90;;;;;;5034539;28;20059;-57
2022/12/14 05:16:18;;;;;;;40.28;19.15;;;-4.80;99.90;;;;;;5016794;28;20060;-57
2022/12/14 05:18:44;;;;;;;39.03;21.25;;;-4.80;99.90;;;;;;5034606;28;20452;-57
2022/12/14 05:23:58;;;;;;;34.08;19.65;;;-4.80;99.90;;;;;;5034312;28;20119;-53
2022/12/14 05:26:24;;;;;;;40.20;20.77;;;-4.70;99.90;;;;;;5034355;28;20076;-57
2022/12/14 05:28:49;;;;;;;36.63;19.85;;;-4.70;99.90;;;;;;5033828;28;20073;-55
2022/12/14 05:31:15;;;;;;;38.35;19.13;;;-4.70;99.90;;;;;;5034129;28;20037;-58
2022/12/14 05:33:41;;;;;;;40.40;18.65;;;-4.70;99.90;;;;;;5033961;28;20075;-57
2022/12/14 05:36:08;;;;;;;39.90;19.50;;;-4.80;99.90;;;;;;5034046;28;20081;-57
2022/12/14 05:38:34;;;;;;;44.30;21.33;;;-4.80;99.90;;;;;;5034142;28;20053;-56
2022/12/14 05:41:00;;;;;;;40.85;21.13;;;-4.80;99.90;;;;;;5033964;28;20481;-57
2022/12/14 05:43:26;;;;;;;38.53;19.77;;;-4.80;99.90;;;;;;5015667;28;20068;-57
2022/12/14 05:45:59;;;;;;;37.75;19.52;;;-4.90;99.90;;;;;;5033373;28;20058;-55
2022/12/14 05:48:24;;;;;;;35.17;18.45;;;-4.90;99.90;;;;;;5034074;28;20363;-54
2022/12/14 05:50:50;;;;;;;37.05;18.42;;;-4.90;99.90;;;;;;5033805;28;20067;-54
2022/12/14 05:53:17;;;;;;;38.83;20.45;;;-5.00;99.90;;;;;;5033914;28;20490;-53
2022/12/14 05:55:47;;;;;;;41.63;20.88;;;-5.00;99.90;;;;;;5039010;28;20037;-55
2022/12/14 05:58:12;;;;;;;36.40;18.73;;;-5.00;99.90;;;;;;5053525;28;20439;-55
2022/12/14 06:00:39;;;;;;;40.85;19.95;;;-5.00;99.90;;;;;;5053583;28;20111;-55
2022/12/14 06:03:05;;;;;;;38.35;19.08;;;-5.00;99.90;;;;;;5035398;28;20068;-56
2022/12/14 06:05:30;;;;;;;36.95;18.42;;;-5.00;99.90;;;;;;5053378;28;20035;-54
2022/12/14 06:07:56;;;;;;;45.28;19.48;;;-5.00;99.90;;;;;;5053451;28;20040;-56
2022/12/14 06:10:22;;;;;;;40.03;20.40;;;-5.00;99.90;;;;;;5053586;28;20032;-57
2022/12/14 06:12:48;;;;;;;37.65;20.23;;;-4.90;99.90;;;;;;5053286;28;20358;-56
2022/12/14 06:15:14;;;;;;;37.55;19.27;;;-4.90;99.90;;;;;;5053305;28;20090;-56
2022/12/14 06:17:43;;;;;;;43.08;22.23;;;-4.90;99.90;;;;;;5053263;28;20040;-56
2022/12/14 06:20:10;;;;;;;38.42;19.10;;;-4.90;99.90;;;;;;5052863;28;20110;-54
2022/12/14 06:22:35;;;;;;;43.00;19.40;;;-4.90;99.90;;;;;;5052308;28;20051;-56
2022/12/14 06:25:01;;;;;;;41.47;19.83;;;-4.90;99.90;;;;;;5052042;28;20112;-58
2022/12/14 06:27:27;;;;;;;38.25;18.95;;;-4.90;99.90;;;;;;5052061;28;20147;-57
2022/12/14 06:29:52;;;;;;;40.10;19.30;;;-4.90;99.90;;;;;;5052102;28;20041;-58
2022/12/14 06:32:18;;;;;;;40.05;20.33;;;-4.90;99.90;;;;;;5052411;28;20051;-57
2022/12/14 06:34:44;;;;;;;39.55;18.90;;;-4.90;99.90;;;;;;5051805;28;20075;-56
2022/12/14 06:37:10;;;;;;;40.60;20.67;;;-4.90;99.90;;;;;;5050198;28;20041;-55
2022/12/14 06:39:36;;;;;;;45.75;21.77;;;-5.00;99.90;;;;;;5051995;28;20041;-55
2022/12/14 06:42:02;;;;;;;40.35;19.73;;;-4.90;99.90;;;;;;5034232;28;20056;-57
2022/12/14 06:44:28;;;;;;;40.90;21.02;;;-4.90;99.90;;;;;;5033680;28;20493;-56
2022/12/14 06:46:54;;;;;;;43.75;22.05;;;-4.90;99.90;;;;;;5052090;28;20106;-55
2022/12/14 06:49:20;;;;;;;45.40;21.17;;;-4.90;99.90;;;;;;5034081;28;20760;-57
2022/12/14 06:51:47;;;;;;;41.55;20.30;;;-4.90;99.90;;;;;;5052133;28;20116;-57
2022/12/14 06:54:14;;;;;;;43.13;20.10;;;-4.90;99.90;;;;;;5051692;28;20110;-57
2022/12/14 06:56:41;;;;;;;40.35;21.58;;;-5.00;99.90;;;;;;5038278;28;20437;-55
2022/12/14 06:59:07;;;;;;;44.53;20.88;;;-5.00;99.90;;;;;;5037951;28;20515;-57
2022/12/14 07:01:34;;;;;;;46.25;20.70;;;-5.00;99.90;;;;;;5042236;28;20045;-57
2022/12/14 07:04:00;;;;;;;41.40;22.50;;;-5.00;99.90;;;;;;5022602;28;20538;-56
2022/12/14 07:06:30;;;;;;;45.42;22.75;;;-4.90;99.90;;;;;;5041225;28;20094;-54
2022/12/14 07:08:57;;;;;;;43.90;21.38;;;-4.90;99.90;;;;;;5042375;28;20064;-54
2022/12/14 07:11:24;;;;;;;41.10;21.50;;;-5.00;99.90;;;;;;5040911;28;20033;-55
2022/12/14 07:13:49;;;;;;;40.83;20.88;;;-4.90;99.90;;;;;;5041469;28;20048;-56
2022/12/14 07:16:18;;;;;;;43.13;21.25;;;-5.00;99.90;;;;;;5040211;28;20397;-57
2022/12/14 07:18:44;;;;;;;36.83;19.67;;;-4.90;99.90;;;;;;5040013;28;20037;-57
2022/12/14 07:21:14;;;;;;;44.45;20.23;;;-4.90;99.90;;;;;;5041602;28;20041;-56
2022/12/14 07:23:42;;;;;;;41.92;20.60;;;-4.90;99.90;;;;;;5041797;28;20044;-57
2022/12/14 07:26:12;;;;;;;42.20;19.50;;;-4.90;99.90;;;;;;5035894;28;20049;-56
2022/12/14 07:28:39;;;;;;;40.65;20.67;;;-4.90;99.90;;;;;;5031011;28;20056;-56
2022/12/14 07:31:20;;;;;;;42.83;22.45;;;-4.90;99.90;;;;;;5030954;28;20048;-57
2022/12/14 07:33:46;;;;;;;44.42;20.95;;;-4.90;99.90;;;;;;5031375;28;20110;-56
2022/12/14 07:36:15;;;;;;;44.63;20.33;;;-4.90;99.90;;;;;;5031281;28;20493;-56
2022/12/14 07:38:42;;;;;;;45.58;21.13;;;-4.90;99.90;;;;;;5013451;28;20080;-54
2022/12/14 07:41:11;;;;;;;45.28;21.65;;;-4.90;99.90;;;;;;5013429;28;20561;-57
2022/12/14 07:43:38;;;;;;;40.55;22.58;;;-4.90;99.90;;;;;;5013232;28;20053;-56
2022/12/14 07:46:08;;;;;;;44.03;22.67;;;-4.90;99.90;;;;;;5031284;28;20120;-56
2022/12/14 07:48:34;;;;;;;40.65;21.60;;;-5.00;99.90;;;;;;5031549;28;20034;-57
2022/12/14 07:51:11;;;;;;;44.17;21.52;;;-5.00;99.90;;;;;;5031208;28;20045;-55
2022/12/14 07:53:39;;;;;;;42.22;21.23;;;-5.00;99.90;;;;;;5030967;28;20482;-57
2022/12/14 07:56:07;;;;;;;43.17;22.25;;;-4.90;99.90;;;;;;5039395;28;20048;-56
2022/12/14 07:58:35;;;;;;;46.25;22.45;;;-4.90;99.90;;;;;;5051257;28;20040;-57
2022/12/14 08:01:14;;;;;;;46.67;22.67;;;-5.00;99.90;;;;;;5051190;28;20037;-57
2022/12/14 08:03:48;;;;;;;46.15;21.88;;;-4.90;99.90;;;;;;5051094;28;20033;-57
2022/12/14 08:06:15;;;;;;;43.83;22.25;;;-4.90;99.90;;;;;;5050909;28;20043;-54
2022/12/14 08:08:41;;;;;;;49.83;24.10;;;-4.90;99.90;;;;;;5054056;28;20040;-55
2022/12/14 08:11:08;;;;;;;44.80;22.30;;;-4.90;99.90;;;;;;5054778;28;20083;-57
2022/12/14 08:13:34;;;;;;;44.88;22.85;;;-4.90;99.90;;;;;;5055261;28;20041;-56
2022/12/14 08:16:11;;;;;;;45.65;21.70;;;-4.90;99.90;;;;;;5036772;28;20037;-57
2022/12/14 08:18:37;;;;;;;46.38;22.05;;;-4.80;99.90;;;;;;5036839;28;20041;-56
2022/12/14 08:21:04;;;;;;;41.55;22.13;;;-4.80;99.90;;;;;;5054609;28;20037;-56
2022/12/14 08:23:30;;;;;;;46.35;23.05;;;-4.70;99.90;;;;;;5054469;28;20080;-56
2022/12/14 08:25:58;;;;;;;42.88;21.23;;;-4.70;99.90;;;;;;5054258;28;20415;-57
2022/12/14 08:28:24;;;;;;;46.03;21.92;;;-4.70;99.90;;;;;;5054496;28;20056;-55
2022/12/14 08:30:50;;;;;;;40.25;20.45;;;-4.70;99.90;;;;;;5036442;28;20103;-54
2022/12/14 08:33:17;;;;;;;47.65;21.80;;;-4.70;99.90;;;;;;5054597;28;20045;-55
2022/12/14 08:35:43;;;;;;;47.08;22.90;;;-4.70;99.90;;;;;;5054245;28;20052;-55
2022/12/14 08:38:09;;;;;;;40.90;20.27;;;-4.70;99.90;;;;;;5054291;28;20045;-55
2022/12/14 08:40:35;;;;;;;43.50;22.02;;;-4.70;99.90;;;;;;5054204;28;20033;-53
2022/12/14 08:43:01;;;;;;;41.15;21.38;;;-4.60;99.90;;;;;;5054360;28;20052;-55
2022/12/14 08:45:26;;;;;;;38.95;21.73;;;-4.70;99.90;;;;;;5053927;28;20718;-55
2022/12/14 08:47:52;;;;;;;48.17;21.13;;;-4.60;99.90;;;;;;5054359;28;20052;-56
2022/12/14 08:50:18;;;;;;;42.13;21.95;;;-4.50;99.90;;;;;;5054168;28;20044;-57
2022/12/14 08:52:47;;;;;;;39.38;20.90;;;-4.50;99.90;;;;;;5036205;28;20144;-54
2022/12/14 08:55:13;;;;;;;45.28;22.90;;;-4.40;99.90;;;;;;5036042;28;20045;-57
2022/12/14 08:57:38;;;;;;;41.92;20.45;;;-4.40;99.90;;;;;;5036029;28;20051;-56
2022/12/14 09:00:05;;;;;;;44.13;20.15;;;-4.30;99.90;;;;;;5054216;28;20079;-55
2022/12/14 09:02:31;;;;;;;41.40;20.25;;;-4.30;99.90;;;;;;5053865;28;20049;-57
2022/12/14 09:04:57;;;;;;;40.35;19.33;;;-4.20;99.90;;;;;;5054104;28;20040;-55
2022/12/14 09:07:22;;;;;;;40.90;19.70;;;-4.10;99.90;;;;;;5051055;28;20041;-56
2022/12/14 09:09:48;;;;;;;39.30;20.30;;;-4.00;99.90;;;;;;5025537;28;20041;-56
2022/12/14 09:12:13;;;;;;;43.88;20.90;;;-3.80;99.90;;;;;;5042922;28;20037;-57
2022/12/14 09:14:39;;;;;;;44.30;19.88;;;-3.80;99.90;;;;;;5044579;28;20055;-56
2022/12/14 09:17:05;;;;;;;45.13;19.63;;;-3.80;99.90;;;;;;5042450;28;20486;-56
2022/12/14 09:19:30;;;;;;;41.92;19.52;;;-3.70;99.90;;;;;;5043263;28;20111;-58
2022/12/14 09:21:56;;;;;;;38.15;19.15;;;-3.80;99.90;;;;;;5043856;28;20034;-56
2022/12/14 09:24:23;;;;;;;43.58;20.88;;;-3.70;99.90;;;;;;5041465;28;20041;-57
2022/12/14 09:26:50;;;;;;;41.33;20.58;;;-3.60;99.90;;;;;;5025441;28;20554;-57
2022/12/14 09:29:17;;;;;;;36.58;19.60;;;-3.60;99.90;;;;;;5043518;28;20462;-57
2022/12/14 09:31:43;;;;;;;43.80;19.20;;;-3.60;99.90;;;;;;5044962;28;20063;-58
2022/12/14 09:34:09;;;;;;;42.10;19.13;;;-3.60;99.90;;;;;;5053448;28;20497;-56
2022/12/14 09:36:35;;;;;;;38.35;19.52;;;-3.60;99.90;;;;;;5052958;28;20059;-56
2022/12/14 09:39:01;;;;;;;39.47;19.83;;;-3.50;99.90;;;;;;5053482;28;20049;-56
2022/12/14 09:41:33;;;;;;;41.92;20.33;;;-3.50;99.90;;;;;;5052878;28;20049;-54
2022/12/14 09:44:15;;;;;;;44.03;19.55;;;-3.40;99.90;;;;;;5052613;28;20460;-56
2022/12/14 09:46:44;;;;;;;35.42;20.02;;;-3.40;99.90;;;;;;5032859;28;20091;-56
2022/12/14 09:49:26;;;;;;;36.60;17.83;;;-3.30;99.90;;;;;;5033025;28;20034;-55
2022/12/14 09:51:53;;;;;;;38.95;18.15;;;-3.30;99.90;;;;;;5033196;28;20041;-56
2022/12/14 09:54:23;;;;;;;38.85;19.15;;;-3.20;99.90;;;;;;5015343;28;20057;-57
2022/12/14 09:56:49;;;;;;;39.47;20.25;;;-3.20;99.90;;;;;;5019694;28;20096;-55
2022/12/14 09:59:19;;;;;;;42.60;20.92;;;-3.20;99.90;;;;;;5032950;28;20500;-56
2022/12/14 10:01:56;;;;;;;38.58;18.77;;;-3.20;99.90;;;;;;5032853;28;20509;-55
2022/12/14 10:05:10;;;;;;;39.53;18.33;;;-3.20;99.90;;;;;;5032668;28;20560;-54
2022/12/14 10:07:56;;;;;;;39.78;18.83;;;-3.20;99.90;;;;;;4952000;28;20044;-56
2022/12/14 10:10:25;;;;;;;37.50;19.65;;;-3.00;99.90;;;;;;5041363;28;20400;-56
2022/12/14 10:12:57;;;;;;;40.25;19.42;;;-3.00;99.90;;;;;;5042096;28;20415;-57
2022/12/14 10:15:31;;;;;;;37.50;20.13;;;-3.00;99.90;;;;;;5043088;28;20136;-56
2022/12/14 10:17:59;;;;;;;35.78;19.67;;;-2.90;99.90;;;;;;5043630;28;20112;-55
2022/12/14 10:20:36;;;;;;;37.20;19.80;;;-2.90;99.90;;;;;;5048794;28;20399;-56
2022/12/14 10:23:03;;;;;;;43.45;19.70;;;-3.00;99.90;;;;;;5052511;28;20040;-55
2022/12/14 10:25:31;;;;;;;35.95;19.20;;;-2.80;99.90;;;;;;5052590;28;20040;-56
2022/12/14 10:28:04;;;;;;;36.63;18.92;;;-2.80;99.90;;;;;;5051676;28;20053;-56
2022/12/14 10:30:30;;;;;;;35.00;18.58;;;-2.80;99.90;;;;;;5052075;28;20079;-57
2022/12/14 10:33:20;;;;;;;35.90;19.42;;;-2.80;99.90;;;;;;5052120;28;20080;-56
2022/12/14 10:35:50;;;;;;;36.33;18.00;;;-2.70;99.90;;;;;;5052337;28;20051;-56
2022/12/14 10:39:01;;;;;;;40.15;19.83;;;-2.70;99.90;;;;;;5052174;28;20088;-56
2022/12/14 10:41:41;;;;;;;39.03;19.67;;;-2.70;99.90;;;;;;5033156;28;20060;-54
2022/12/14 10:44:23;;;;;;;36.78;18.45;;;-2.60;99.90;;;;;;5051590;28;20045;-55
2022/12/14 10:46:53;;;;;;;34.63;17.20;;;-2.60;99.90;;;;;;5052173;28;20386;-56
2022/12/14 10:49:27;;;;;;;36.75;17.65;;;-2.50;99.90;;;;;;5052135;28;20355;-56
2022/12/14 10:52:16;;;;;;;36.40;17.48;;;-2.40;99.90;;;;;;5052203;28;20079;-57
2022/12/14 10:55:04;;;;;;;32.65;16.63;;;-2.40;99.90;;;;;;5045297;28;20067;-56
2022/12/14 10:57:30;;;;;;;32.67;16.38;;;-2.30;99.90;;;;;;5048858;28;20112;-58
2022/12/14 10:59:56;;;;;;;34.33;16.38;;;-2.20;99.90;;;;;;5043831;28;20141;-57
2022/12/14 11:02:27;;;;;;;34.13;17.80;;;-2.20;99.90;;;;;;5014030;28;20103;-58
2022/12/14 11:05:16;;;;;;;35.03;17.90;;;-2.10;99.90;;;;;;5032057;28;20041;-58
2022/12/14 11:07:44;;;;;;;33.75;16.88;;;-2.00;99.90;;;;;;5016077;28;20708;-57
2022/12/14 11:10:19;;;;;;;33.20;16.55;;;-1.90;99.90;;;;;;5031775;28;20052;-58
2022/12/14 11:13:17;;;;;;;34.30;16.75;;;-1.90;99.90;;;;;;5031699;28;20397;-58
2022/12/14 11:15:48;;;;;;;34.40;16.65;;;-1.80;99.90;;;;;;5031061;28;20053;-57
2022/12/14 11:18:14;;;;;;;31.88;16.08;;;-1.70;99.90;;;;;;5031003;28;20109;-56
2022/12/14 11:20:53;;;;;;;34.38;15.60;;;-1.70;99.90;;;;;;5031238;28;20076;-56
2022/12/14 11:23:34;;;;;;;33.20;16.52;;;-1.60;99.90;;;;;;5039000;28;20516;-59
2022/12/14 11:26:03;;;;;;;37.63;17.98;;;-1.60;99.90;;;;;;5021890;28;20393;-55
2022/12/14 11:28:30;;;;;;;34.72;18.00;;;-1.50;99.90;;;;;;5041074;28;20045;-57
2022/12/14 11:31:05;;;;;;;33.03;15.90;;;-1.50;99.90;;;;;;5041713;28;20447;-55
2022/12/14 11:33:42;;;;;;;33.53;16.00;;;-1.40;99.90;;;;;;5043940;28;20044;-53
2022/12/14 11:36:08;;;;;;;34.05;16.90;;;-1.30;99.90;;;;;;5033428;28;20244;-54
2022/12/14 11:38:34;;;;;;;31.95;17.25;;;-1.30;99.90;;;;;;5033561;28;20045;-56
2022/12/14 11:41:02;;;;;;;32.75;16.90;;;-1.30;99.90;;;;;;5051448;28;20112;-55
2022/12/14 11:43:37;;;;;;;33.80;16.63;;;-1.20;99.90;;;;;;5032144;28;20143;-57
2022/12/14 11:46:03;;;;;;;32.30;16.67;;;-1.20;99.90;;;;;;5048037;28;20037;-57
2022/12/14 11:48:29;;;;;;;31.30;15.88;;;-1.20;99.90;;;;;;5039884;28;20037;-57
2022/12/14 11:51:12;;;;;;;34.35;18.08;;;-1.30;99.90;;;;;;5041639;28;20036;-58
2022/12/14 11:53:38;;;;;;;;;;;-1.30;99.90;;;;;;5041066;28;20285;-58
2022/12/14 11:56:09;;;;;;;29.45;15.38;;;-1.30;99.90;;;;;;5041513;28;20502;-58
2022/12/14 11:58:44;;;;;;;33.10;16.57;;;-1.30;99.90;;;;;;5040214;28;20038;-58
2022/12/14 12:01:13;;;;;;;32.35;16.75;;;-1.20;99.90;;;;;;5039604;28;20673;-57
2022/12/14 12:03:47;;;;;;;28.33;14.95;;;-1.20;99.90;;;;;;5038398;28;20077;-58
2022/12/14 12:06:19;;;;;;;28.33;14.90;;;-1.20;99.90;;;;;;5013433;28;20046;-58
2022/12/14 12:08:45;;;;;;;25.58;13.27;;;-1.30;99.90;;;;;;5031180;28;20046;-57
2022/12/14 12:11:18;;;;;;;29.73;15.25;;;-1.30;99.90;;;;;;5031123;28;20117;-57
2022/12/14 12:13:47;;;;;;;25.90;13.68;;;-1.20;99.90;;;;;;5030771;28;20041;-56
2022/12/14 12:16:21;;;;;;;25.48;12.18;;;-1.30;99.90;;;;;;5036262;28;20044;-58
2022/12/14 12:19:02;;;;;;;25.13;13.40;;;-1.20;99.90;;;;;;5041098;28;20043;-57
2022/12/14 12:21:30;;;;;;;26.70;13.35;;;-1.20;99.90;;;;;;5041233;28;20351;-56
2022/12/14 12:24:18;;;;;;;30.65;15.02;;;-1.20;99.90;;;;;;5039429;28;20041;-57
2022/12/14 12:26:49;;;;;;;26.98;12.68;;;-1.10;99.90;;;;;;5040640;28;20052;-57
2022/12/14 12:29:30;;;;;;;30.67;16.30;;;-1.10;99.90;;;;;;5039160;28;20038;-56
2022/12/14 12:32:36;;;;;;;26.42;14.05;;;-1.00;99.90;;;;;;5004577;28;20083;-56
2022/12/14 12:35:15;;;;;;;26.00;13.95;;;-1.10;99.90;;;;;;5030760;28;20047;-57
2022/12/14 12:37:49;;;;;;;25.08;13.05;;;-1.00;99.90;;;;;;5030797;28;20037;-56
2022/12/14 12:40:39;;;;;;;32.30;15.50;;;-1.00;99.90;;;;;;5012882;28;20038;-55
2022/12/14 12:43:17;;;;;;;30.92;16.15;;;-1.00;99.90;;;;;;5030656;28;20034;-56
2022/12/14 12:45:46;;;;;;;28.98;15.20;;;-1.00;99.90;;;;;;4991630;28;20097;-57
2022/12/14 12:48:24;;;;;;;28.75;13.50;;;-1.00;99.90;;;;;;4991512;28;20046;-57
2022/12/14 12:50:54;;;;;;;28.70;14.15;;;-1.00;99.90;;;;;;4991378;28;20049;-57
2022/12/14 12:53:38;;;;;;;30.20;15.35;;;-1.00;99.90;;;;;;4992260;28;20455;-57
2022/12/14 12:56:15;;;;;;;26.67;13.73;;;-1.00;99.90;;;;;;4999917;28;20445;-56
2022/12/14 12:58:44;;;;;;;30.33;15.63;;;-0.90;99.90;;;;;;4998030;28;20053;-57
2022/12/14 13:01:30;;;;;;;28.33;15.02;;;-0.90;99.90;;;;;;4997522;28;20042;-57
2022/12/14 13:04:01;;;;;;;26.98;15.23;;;-0.90;99.90;;;;;;4994484;28;20049;-56
2022/12/14 13:06:31;;;;;;;27.02;12.60;;;-0.80;99.90;;;;;;4994470;28;20116;-58